createdAt,value
2022-11-27T00:01:46.881Z,81.49
2022-11-27T00:07:38.735Z,81.15
2022-11-27T00:13:31.013Z,81.11
2022-11-27T00:19:23.931Z,81.26
2022-11-27T00:25:15.957Z,81.34
2022-11-27T00:31:19.217Z,81.20
2022-11-27T00:37:12.481Z,81.04
2022-11-27T00:43:05.283Z,80.90
2022-11-27T00:48:59.480Z,80.80
2022-11-27T00:54:51.761Z,80.21
2022-11-27T01:00:44.213Z,80.68
2022-11-27T01:06:37.441Z,80.64
2022-11-27T01:12:29.882Z,80.63
2022-11-27T01:18:22.150Z,80.94
2022-11-27T01:24:16.692Z,79.93
2022-11-27T01:30:09.822Z,80.50
2022-11-27T01:36:05.161Z,79.97
2022-11-27T01:41:57.341Z,80.53
2022-11-27T01:48:01.841Z,81.07
2022-11-27T01:53:55.114Z,80.77
2022-11-27T01:59:49.821Z,80.37
2022-11-27T02:05:41.928Z,80.55
2022-11-27T02:11:39.178Z,80.99
2022-11-27T02:17:42.421Z,80.98
2022-11-27T02:23:43.965Z,81.01
2022-11-27T02:29:37.007Z,80.02
2022-11-27T02:35:37.742Z,80.36
2022-11-27T02:41:39.662Z,81.36
2022-11-27T02:47:32.822Z,81.00
2022-11-27T02:53:38.053Z,81.07
2022-11-27T02:59:33.733Z,80.96
2022-11-27T03:05:33.012Z,81.19
2022-11-27T03:11:26.872Z,81.32
2022-11-27T03:18:05.302Z,81.33
2022-11-27T03:23:58.723Z,80.87
2022-11-27T03:30:05.212Z,81.20
2022-11-27T03:35:58.462Z,80.91
2022-11-27T03:42:15.933Z,81.41
2022-11-27T03:48:14.252Z,81.03
2022-11-27T03:54:15.213Z,80.55
2022-11-27T04:00:09.642Z,80.79
2022-11-27T04:06:02.165Z,81.01
2022-11-27T04:11:54.584Z,80.50
2022-11-27T04:17:47.624Z,80.94
2022-11-27T04:23:41.082Z,81.01
2022-11-27T04:29:33.723Z,80.47
2022-11-27T04:35:27.737Z,81.69
2022-11-27T04:41:20.721Z,80.96
2022-11-27T04:47:13.712Z,81.92
2022-11-27T04:53:06.760Z,80.89
2022-11-27T04:58:59.649Z,80.53
2022-11-27T05:04:51.867Z,80.63
2022-11-27T05:10:44.797Z,81.28
2022-11-27T05:16:38.175Z,80.91
2022-11-27T05:22:30.818Z,80.74
2022-11-27T05:28:26.878Z,81.28
2022-11-27T05:34:19.852Z,81.34
2022-11-27T05:40:13.126Z,81.24
2022-11-27T05:46:10.845Z,81.06
2022-11-27T05:52:03.892Z,80.67
2022-11-27T05:57:56.846Z,80.28
2022-11-27T06:03:49.004Z,80.40
2022-11-27T06:09:42.040Z,80.40
2022-11-27T06:15:37.548Z,81.05
2022-11-27T06:21:30.166Z,80.72
2022-11-27T06:27:23.884Z,80.97
2022-11-27T06:33:16.977Z,81.00
2022-11-27T06:39:12.286Z,80.86
2022-11-27T06:45:05.452Z,80.58
2022-11-27T06:51:05.606Z,80.97
2022-11-27T06:56:58.627Z,81.15
2022-11-27T07:02:53.686Z,81.41
2022-11-27T07:08:46.368Z,82.76
2022-11-27T07:14:39.008Z,83.28
2022-11-27T07:20:32.547Z,84.17
2022-11-27T07:26:27.856Z,84.31
2022-11-27T07:32:20.387Z,83.70
2022-11-27T07:38:12.777Z,83.25
2022-11-27T07:44:05.216Z,82.67
2022-11-27T07:50:00.547Z,82.92
2022-11-27T07:55:53.961Z,82.36
2022-11-27T08:01:45.637Z,81.40
2022-11-27T08:07:38.220Z,81.66
2022-11-27T08:13:31.532Z,81.52
2022-11-27T08:19:24.657Z,81.79
2022-11-27T08:25:17.347Z,80.76
2022-11-27T08:31:13.541Z,79.99
2022-11-27T08:37:07.429Z,79.66
2022-11-27T08:43:00.961Z,79.78
2022-11-27T08:48:53.211Z,78.57
2022-11-27T08:54:45.737Z,78.74
2022-11-27T09:00:39.653Z,78.47
2022-11-27T09:06:35.097Z,76.76
2022-11-27T09:12:29.049Z,75.21
2022-11-27T09:18:20.890Z,73.48
2022-11-27T09:24:13.448Z,73.59
2022-11-27T09:30:08.163Z,74.31
2022-11-27T09:36:03.520Z,74.73
2022-11-27T09:41:59.904Z,75.63
2022-11-27T09:48:06.119Z,76.58
2022-11-27T09:54:03.001Z,77.58
2022-11-27T10:00:01.707Z,76.08
2022-11-27T10:05:57.147Z,75.11
2022-11-27T10:12:10.786Z,74.17
2022-11-27T10:18:06.654Z,74.27
2022-11-27T10:24:24.689Z,73.42
2022-11-27T10:30:20.957Z,73.21
2022-11-27T10:36:24.526Z,73.88
2022-11-27T10:42:49.200Z,72.63
2022-11-27T10:48:41.941Z,69.67
2022-11-27T10:54:37.842Z,70.46
2022-11-27T11:00:30.847Z,70.53
2022-11-27T11:06:27.212Z,69.89
2022-11-27T11:12:23.590Z,67.94
2022-11-27T11:18:20.959Z,67.80
2022-11-27T11:24:21.777Z,67.97
2022-11-27T11:30:28.847Z,68.19
2022-11-27T11:36:23.064Z,67.94
2022-11-27T11:42:30.196Z,67.80
2022-11-27T11:48:25.417Z,68.03
2022-11-27T11:54:28.296Z,67.57
2022-11-27T12:00:30.173Z,67.39
2022-11-27T12:06:45.820Z,68.49
2022-11-27T12:13:04.832Z,68.98
2022-11-27T12:19:16.205Z,68.67
2022-11-27T12:25:26.879Z,68.93
2022-11-27T12:31:41.182Z,69.89
2022-11-27T12:37:51.189Z,70.25
2022-11-27T12:43:56.143Z,70.51
2022-11-27T12:49:56.401Z,70.60
2022-11-27T12:56:08.486Z,70.99
2022-11-27T13:02:11.346Z,70.64
2022-11-27T13:08:22.858Z,71.21
2022-11-27T13:14:20.039Z,71.86
2022-11-27T13:20:20.715Z,71.89
2022-11-27T13:26:26.536Z,72.82
2022-11-27T13:32:25.820Z,73.96
2022-11-27T13:38:25.180Z,74.01
2022-11-27T13:44:26.931Z,74.13
2022-11-27T13:50:28.205Z,74.06
2022-11-27T13:56:31.591Z,74.00
2022-11-27T14:02:25.510Z,75.77
2022-11-27T14:08:51.799Z,75.92
2022-11-27T14:14:45.739Z,76.07
2022-11-27T14:21:22.139Z,76.29
2022-11-27T14:27:23.748Z,77.12
2022-11-27T14:33:23.331Z,76.90
2022-11-27T14:39:30.300Z,77.35
2022-11-27T14:45:24.161Z,78.33
2022-11-27T14:51:20.069Z,78.76
2022-11-27T14:57:19.867Z,78.95
2022-11-27T15:03:18.202Z,79.12
2022-11-27T15:09:33.575Z,78.99
2022-11-27T15:15:29.234Z,79.71
2022-11-27T15:21:25.924Z,79.42
2022-11-27T15:27:21.199Z,79.88
2022-11-27T15:33:29.819Z,79.51
2022-11-27T15:39:38.500Z,80.12
2022-11-27T15:45:33.383Z,79.13
2022-11-27T15:51:26.365Z,79.39
2022-11-27T15:57:19.092Z,78.96
2022-11-27T16:03:11.612Z,79.42
2022-11-27T16:09:05.360Z,79.67
2022-11-27T16:14:57.389Z,79.14
2022-11-27T16:20:49.549Z,79.69
2022-11-27T16:26:42.471Z,79.33
2022-11-27T16:32:41.358Z,79.84
2022-11-27T16:38:34.448Z,79.99
2022-11-27T16:44:27.039Z,80.26
2022-11-27T16:50:19.369Z,81.07
2022-11-27T16:56:13.501Z,80.61
2022-11-27T17:02:06.524Z,80.51
2022-11-27T17:07:59.651Z,80.59
2022-11-27T17:13:56.397Z,80.67
2022-11-27T17:19:49.746Z,81.30
2022-11-27T17:25:43.750Z,81.21
2022-11-27T17:31:37.342Z,81.05
2022-11-27T17:37:30.559Z,81.49
2022-11-27T17:43:22.799Z,81.54
2022-11-27T17:49:16.489Z,81.06
2022-11-27T17:55:19.640Z,80.69
2022-11-27T18:01:18.092Z,80.46
2022-11-27T18:07:10.653Z,80.63
2022-11-27T18:13:03.822Z,80.10
2022-11-27T18:18:57.148Z,80.23
2022-11-27T18:24:49.700Z,80.27
2022-11-27T18:30:41.609Z,80.52
2022-11-27T18:36:34.809Z,80.97
2022-11-27T18:42:27.573Z,80.82
2022-11-27T18:48:21.855Z,80.28
2022-11-27T18:54:14.889Z,80.35
2022-11-27T19:00:08.969Z,80.49
2022-11-27T19:06:02.873Z,81.05
2022-11-27T19:11:56.023Z,80.75
2022-11-27T19:17:48.559Z,80.59
2022-11-27T19:23:42.016Z,80.65
2022-11-27T19:29:35.038Z,80.53
2022-11-27T19:35:27.549Z,80.92
2022-11-27T19:41:20.094Z,80.91
2022-11-27T19:47:12.559Z,81.27
2022-11-27T19:53:07.241Z,81.35
2022-11-27T19:59:02.128Z,82.15
2022-11-27T20:04:54.572Z,82.09
2022-11-27T20:10:50.614Z,82.56
2022-11-27T20:16:42.884Z,83.01
2022-11-27T20:22:36.780Z,82.25
2022-11-27T20:28:29.313Z,82.50
2022-11-27T20:34:22.701Z,82.85
2022-11-27T20:40:15.149Z,82.44
2022-11-27T20:46:08.107Z,83.27
2022-11-27T20:52:03.721Z,83.19
2022-11-27T20:57:56.180Z,83.31
2022-11-27T21:03:51.541Z,83.35
2022-11-27T21:09:44.385Z,83.65
2022-11-27T21:15:37.818Z,84.03
2022-11-27T21:21:30.718Z,84.42
2022-11-27T21:27:24.220Z,84.23
2022-11-27T21:33:17.344Z,84.50
2022-11-27T21:39:13.215Z,84.08
2022-11-27T21:45:06.299Z,84.09
2022-11-27T21:50:44.779Z,84.67
2022-11-27T21:56:40.438Z,84.73
2022-11-27T22:02:33.379Z,85.06
2022-11-27T22:08:38.526Z,84.42
2022-11-27T22:14:31.299Z,84.25
2022-11-27T22:20:24.039Z,84.49
2022-11-27T22:26:18.739Z,85.30
2022-11-27T22:32:12.308Z,84.70
2022-11-27T22:38:04.441Z,85.27
2022-11-27T22:43:59.058Z,84.84
2022-11-27T22:49:52.358Z,83.87
2022-11-27T22:55:44.089Z,83.42
2022-11-27T23:01:37.519Z,83.05
2022-11-27T23:07:30.414Z,82.30
2022-11-27T23:13:22.442Z,82.22
2022-11-27T23:19:14.413Z,81.88
2022-11-27T23:25:06.948Z,81.43
2022-11-27T23:31:28.085Z,80.83
2022-11-27T23:37:17.479Z,80.46
2022-11-27T23:43:09.587Z,80.74
2022-11-27T23:49:01.472Z,80.85
2022-11-27T23:54:53.490Z,80.75
